Time;durP1;ratioP1;P1;durP2;ratioP2;P2;SDS_P1;SDS_P2;PMS_P1;PMS_P2;Temp;Humidity;BMP_temperature;BMP_pressure;BME280_temperature;BME280_humidity;BME280_pressure;Samples;Min_cycle;Max_cycle;Signal;HPM_P1;HPM_P2
2023/11/12 00:01:17;;;;;;;1.88;0.45;;;;;;;;;;5115824;28;20032;-78
2023/11/12 00:03:44;;;;;;;0.35;0.30;;;;;;;;;;5083093;28;20028;-78
2023/11/12 00:06:11;;;;;;;0.98;0.43;;;;;;;;;;5095276;28;20009;-78
2023/11/12 00:08:38;;;;;;;0.57;0.40;;;;;;;;;;5095168;28;20120;-77
2023/11/12 00:11:04;;;;;;;0.75;0.47;;;;;;;;;;5094712;28;20030;-79
2023/11/12 00:13:30;;;;;;;0.70;0.50;;;;;;;;;;5087920;28;20482;-79
2023/11/12 00:15:57;;;;;;;1.05;0.60;;;;;;;;;;5076904;28;20046;-79
2023/11/12 00:18:23;;;;;;;0.50;0.50;;;;;;;;;;5075614;28;20020;-78
2023/11/12 00:20:53;;;;;;;0.88;0.47;;;;;;;;;;5077462;28;20104;-78
2023/11/12 00:23:23;;;;;;;1.35;0.65;;;;;;;;;;5061916;28;20024;-77
2023/11/12 00:25:49;;;;;;;0.70;0.57;;;;;;;;;;5076245;28;20025;-78
2023/11/12 00:28:15;;;;;;;0.47;0.40;;;;;;;;;;5058515;28;20031;-80
2023/11/12 00:30:42;;;;;;;0.60;0.50;;;;;;;;;;5078081;28;20119;-76
2023/11/12 00:33:11;;;;;;;0.43;0.43;;;;;;;;;;5077302;28;20385;-77
2023/11/12 00:35:37;;;;;;;1.52;0.52;;;;;;;;;;5073460;28;20413;-80
2023/11/12 00:38:04;;;;;;;0.57;0.50;;;;;;;;;;5075446;28;20047;-80
2023/11/12 00:40:32;;;;;;;0.52;0.52;;;;;;;;;;5076237;28;20028;-78
2023/11/12 00:42:58;;;;;;;0.68;0.45;;;;;;;;;;5068898;28;20020;-79
2023/11/12 00:45:24;;;;;;;1.65;0.30;;;;;;;;;;5079570;28;20020;-79
2023/11/12 00:47:50;;;;;;;1.58;0.63;;;;;;;;;;5076597;28;20028;-78
2023/11/12 00:50:17;;;;;;;0.20;0.20;;;;;;;;;;5084209;28;20012;-79
2023/11/12 00:52:43;;;;;;;0.20;0.20;;;;;;;;;;5060837;28;20024;-79
2023/11/12 00:55:11;;;;;;;0.30;0.30;;;;;;;;;;5081728;28;20020;-79
2023/11/12 00:57:37;;;;;;;0.47;0.32;;;;;;;;;;5059668;28;20040;-79
2023/11/12 01:00:05;;;;;;;0.20;0.20;;;;;;;;;;5057694;28;20474;-80
2023/11/12 01:02:31;;;;;;;0.20;0.20;;;;;;;;;;5077286;28;20465;-78
2023/11/12 01:04:57;;;;;;;0.57;0.30;;;;;;;;;;5079992;28;20047;-78
2023/11/12 01:07:24;;;;;;;0.20;0.20;;;;;;;;;;5086861;28;20020;-79
2023/11/12 01:09:50;;;;;;;0.50;0.40;;;;;;;;;;5074397;28;20427;-79
2023/11/12 01:12:19;;;;;;;0.70;0.40;;;;;;;;;;5062170;28;20111;-79
2023/11/12 01:14:45;;;;;;;0.50;0.40;;;;;;;;;;5084852;28;20164;-78
2023/11/12 01:17:11;;;;;;;1.30;0.30;;;;;;;;;;5080826;28;20016;-79
2023/11/12 01:19:38;;;;;;;1.17;0.60;;;;;;;;;;5071400;28;20032;-79
2023/11/12 01:22:04;;;;;;;1.00;0.30;;;;;;;;;;5069147;28;20024;-79
2023/11/12 01:24:30;;;;;;;0.30;0.30;;;;;;;;;;5081519;28;20397;-78
2023/11/12 01:26:56;;;;;;;0.30;0.30;;;;;;;;;;5080544;28;20024;-79
2023/11/12 01:29:22;;;;;;;0.20;0.20;;;;;;;;;;5080841;28;20025;-79
2023/11/12 01:31:48;;;;;;;0.30;0.30;;;;;;;;;;5064501;28;20027;-79
2023/11/12 01:34:14;;;;;;;0.20;0.20;;;;;;;;;;5072513;28;20025;-80
2023/11/12 01:36:40;;;;;;;0.50;0.30;;;;;;;;;;5097773;28;20448;-79
2023/11/12 01:39:08;;;;;;;0.55;0.30;;;;;;;;;;5080633;28;20021;-79
2023/11/12 01:41:34;;;;;;;0.25;0.25;;;;;;;;;;5079772;28;20070;-78
2023/11/12 01:44:01;;;;;;;0.73;0.10;;;;;;;;;;5086454;28;20478;-79
2023/11/12 01:46:27;;;;;;;0.20;0.20;;;;;;;;;;5061857;28;20037;-78
2023/11/12 01:48:54;;;;;;;0.28;0.20;;;;;;;;;;5079505;28;20111;-78
2023/11/12 01:51:20;;;;;;;0.20;0.20;;;;;;;;;;5070118;28;20021;-79
2023/11/12 01:53:48;;;;;;;0.13;0.13;;;;;;;;;;5084109;28;20082;-78
2023/11/12 01:56:15;;;;;;;0.20;0.20;;;;;;;;;;5089251;28;20062;-79
2023/11/12 01:58:43;;;;;;;0.10;0.10;;;;;;;;;;5079951;28;20130;-79
2023/11/12 02:01:09;;;;;;;0.20;0.20;;;;;;;;;;5061267;28;20020;-79
2023/11/12 02:03:36;;;;;;;0.10;0.10;;;;;;;;;;5061332;28;20021;-78
2023/11/12 02:06:03;;;;;;;0.30;0.30;;;;;;;;;;5079542;28;20065;-79
2023/11/12 02:08:31;;;;;;;0.20;0.20;;;;;;;;;;5079270;28;20595;-78
2023/11/12 02:10:59;;;;;;;0.20;0.20;;;;;;;;;;5077561;28;20660;-78
2023/11/12 02:13:25;;;;;;;0.30;0.10;;;;;;;;;;5059282;28;20035;-79
2023/11/12 02:15:51;;;;;;;0.20;0.20;;;;;;;;;;5060127;28;20012;-80
2023/11/12 02:18:18;;;;;;;0.35;0.30;;;;;;;;;;5077799;28;20040;-80
2023/11/12 02:20:45;;;;;;;0.43;0.43;;;;;;;;;;5060666;28;20025;-79
2023/11/12 02:23:11;;;;;;;0.70;0.28;;;;;;;;;;5078628;28;20032;-79
2023/11/12 02:25:37;;;;;;;0.17;0.17;;;;;;;;;;5079158;28;20340;-79
2023/11/12 02:28:05;;;;;;;0.25;0.20;;;;;;;;;;5082399;28;20031;-80
2023/11/12 02:30:32;;;;;;;0.20;0.20;;;;;;;;;;5061530;28;20016;-77
2023/11/12 02:32:58;;;;;;;0.47;0.20;;;;;;;;;;5084159;28;20028;-79
2023/11/12 02:35:24;;;;;;;0.22;0.22;;;;;;;;;;5078189;28;20021;-79
2023/11/12 02:37:50;;;;;;;0.40;0.40;;;;;;;;;;5065815;28;20621;-80
2023/11/12 02:40:16;;;;;;;0.47;0.30;;;;;;;;;;5079934;28;20021;-79
2023/11/12 02:42:43;;;;;;;0.75;0.30;;;;;;;;;;5094342;28;20031;-77
2023/11/12 02:45:11;;;;;;;0.30;0.30;;;;;;;;;;5102152;28;20055;-76
2023/11/12 02:47:42;;;;;;;0.47;0.38;;;;;;;;;;5086018;28;20088;-76
2023/11/12 02:50:14;;;;;;;0.50;0.50;;;;;;;;;;5110282;28;20026;-79
2023/11/12 02:52:40;;;;;;;0.38;0.20;;;;;;;;;;5099248;28;20020;-76
2023/11/12 02:55:07;;;;;;;0.10;0.10;;;;;;;;;;5092667;28;20073;-76
2023/11/12 02:57:33;;;;;;;1.20;0.28;;;;;;;;;;5096374;28;20024;-77
2023/11/12 02:59:59;;;;;;;0.20;0.20;;;;;;;;;;5102428;28;20067;-77
2023/11/12 03:02:25;;;;;;;0.30;0.30;;;;;;;;;;5078581;28;20013;-77
2023/11/12 03:04:51;;;;;;;0.25;0.25;;;;;;;;;;5118549;27;20028;-77
2023/11/12 03:07:20;;;;;;;0.30;0.30;;;;;;;;;;5088429;28;20084;-76
2023/11/12 03:09:47;;;;;;;0.60;0.30;;;;;;;;;;5087143;28;20001;-74
2023/11/12 03:12:14;;;;;;;0.50;0.22;;;;;;;;;;5078443;28;20023;-76
2023/11/12 03:14:43;;;;;;;0.22;0.22;;;;;;;;;;5079316;28;20113;-78
2023/11/12 03:17:09;;;;;;;0.40;0.40;;;;;;;;;;5072366;28;20048;-76
2023/11/12 03:19:35;;;;;;;0.30;0.30;;;;;;;;;;5095500;28;20102;-77
2023/11/12 03:22:01;;;;;;;0.63;0.30;;;;;;;;;;5092167;28;20017;-76
2023/11/12 03:24:27;;;;;;;0.30;0.20;;;;;;;;;;5068133;28;20039;-78
2023/11/12 03:26:53;;;;;;;0.70;0.32;;;;;;;;;;5076228;28;20016;-77
2023/11/12 03:29:20;;;;;;;0.47;0.47;;;;;;;;;;5081057;28;20020;-76
2023/11/12 03:31:48;;;;;;;0.40;0.40;;;;;;;;;;5070917;28;20127;-76
2023/11/12 03:34:14;;;;;;;0.75;0.40;;;;;;;;;;5081641;28;20020;-77
2023/11/12 03:36:40;;;;;;;1.30;0.32;;;;;;;;;;5061733;28;20044;-79
2023/11/12 03:39:08;;;;;;;0.20;0.20;;;;;;;;;;5093484;28;20028;-78
2023/11/12 03:41:34;;;;;;;0.50;0.50;;;;;;;;;;5058425;28;20036;-78
2023/11/12 03:44:00;;;;;;;1.10;0.50;;;;;;;;;;5066131;28;20075;-78
2023/11/12 03:46:27;;;;;;;0.50;0.40;;;;;;;;;;5065161;28;20046;-77
2023/11/12 03:48:53;;;;;;;1.00;0.30;;;;;;;;;;5059811;28;20084;-78
2023/11/12 03:51:19;;;;;;;0.55;0.50;;;;;;;;;;5075571;28;20027;-77
2023/11/12 03:53:45;;;;;;;0.43;0.32;;;;;;;;;;5073635;28;20036;-78
2023/11/12 03:56:12;;;;;;;0.30;0.30;;;;;;;;;;5067701;28;20039;-78
2023/11/12 03:58:38;;;;;;;0.93;0.70;;;;;;;;;;5060343;28;20163;-78
2023/11/12 04:01:04;;;;;;;0.70;0.50;;;;;;;;;;5073743;28;20141;-77
2023/11/12 04:03:30;;;;;;;0.43;0.43;;;;;;;;;;5073986;28;20085;-76
2023/11/12 04:05:56;;;;;;;0.22;0.22;;;;;;;;;;5076139;28;20012;-78
2023/11/12 04:08:22;;;;;;;0.47;0.30;;;;;;;;;;5082973;28;20019;-78
2023/11/12 04:10:48;;;;;;;0.77;0.30;;;;;;;;;;5066378;28;20394;-78
2023/11/12 04:13:16;;;;;;;0.38;0.30;;;;;;;;;;5085018;28;20352;-79
2023/11/12 04:15:42;;;;;;;0.30;0.30;;;;;;;;;;5076999;28;20017;-79
2023/11/12 04:18:09;;;;;;;0.30;0.30;;;;;;;;;;5086667;28;20027;-78
2023/11/12 04:20:35;;;;;;;0.30;0.20;;;;;;;;;;5060937;28;20050;-79
2023/11/12 04:23:01;;;;;;;0.35;0.30;;;;;;;;;;5061323;28;20027;-79
2023/11/12 04:25:27;;;;;;;0.28;0.28;;;;;;;;;;5087876;28;20033;-80
2023/11/12 04:27:54;;;;;;;0.40;0.40;;;;;;;;;;5087937;28;20017;-75
2023/11/12 04:30:20;;;;;;;0.25;0.20;;;;;;;;;;5095206;28;20135;-76
2023/11/12 04:32:46;;;;;;;0.38;0.38;;;;;;;;;;5104849;28;20141;-77
2023/11/12 04:35:12;;;;;;;0.40;0.40;;;;;;;;;;5100327;28;20036;-77
2023/11/12 04:37:39;;;;;;;0.30;0.30;;;;;;;;;;5069296;28;20029;-79
2023/11/12 04:40:06;;;;;;;0.60;0.30;;;;;;;;;;5075159;28;20070;-80
2023/11/12 04:42:32;;;;;;;0.88;0.52;;;;;;;;;;5092698;28;20386;-81
2023/11/12 04:44:58;;;;;;;0.65;0.50;;;;;;;;;;5078578;28;20024;-79
2023/11/12 04:47:25;;;;;;;0.55;0.30;;;;;;;;;;5092889;28;20028;-78
2023/11/12 04:49:51;;;;;;;0.70;0.30;;;;;;;;;;5082874;28;20020;-78
2023/11/12 04:52:18;;;;;;;0.60;0.50;;;;;;;;;;5085483;28;20024;-81
2023/11/12 04:54:48;;;;;;;0.85;0.40;;;;;;;;;;5090251;28;20073;-81
2023/11/12 04:57:18;;;;;;;0.30;0.28;;;;;;;;;;5088635;28;20026;-80
2023/11/12 04:59:45;;;;;;;0.55;0.35;;;;;;;;;;5065866;28;20021;-80
2023/11/12 05:02:12;;;;;;;0.40;0.32;;;;;;;;;;5088758;28;20040;-81
2023/11/12 05:04:38;;;;;;;0.30;0.30;;;;;;;;;;5082925;28;20016;-79
2023/11/12 05:07:05;;;;;;;0.25;0.25;;;;;;;;;;5067161;28;20021;-82
2023/11/12 05:09:31;;;;;;;0.10;0.10;;;;;;;;;;5097440;28;20023;-79
2023/11/12 05:11:57;;;;;;;0.38;0.20;;;;;;;;;;5087696;28;20031;-79
2023/11/12 05:14:23;;;;;;;0.22;0.22;;;;;;;;;;5069665;28;20020;-79
2023/11/12 05:16:49;;;;;;;0.30;0.22;;;;;;;;;;5068972;28;20044;-80
2023/11/12 05:19:16;;;;;;;0.22;0.22;;;;;;;;;;5061118;28;20024;-77
2023/11/12 05:21:45;;;;;;;0.13;0.13;;;;;;;;;;5080277;28;20040;-80
2023/11/12 05:24:12;;;;;;;0.25;0.25;;;;;;;;;;5073342;28;20021;-80
2023/11/12 05:26:38;;;;;;;0.22;0.22;;;;;;;;;;5088312;28;20031;-77
2023/11/12 05:29:05;;;;;;;0.43;0.40;;;;;;;;;;5065901;28;20048;-77
2023/11/12 05:31:33;;;;;;;0.10;0.10;;;;;;;;;;5060834;28;20020;-80
2023/11/12 05:34:00;;;;;;;0.20;0.20;;;;;;;;;;5068676;28;20029;-78
2023/11/12 05:36:27;;;;;;;0.10;0.10;;;;;;;;;;5078977;28;20505;-78
2023/11/12 05:38:53;;;;;;;0.10;0.10;;;;;;;;;;5078313;28;20067;-78
2023/11/12 05:41:19;;;;;;;0.10;0.10;;;;;;;;;;5079574;28;20107;-78
2023/11/12 05:43:46;;;;;;;0.08;0.08;;;;;;;;;;5068589;28;20029;-77
2023/11/12 05:46:12;;;;;;;0.30;0.10;;;;;;;;;;5063915;28;20049;-76
2023/11/12 05:48:38;;;;;;;0.20;0.17;;;;;;;;;;5091108;28;20024;-76
2023/11/12 05:51:05;;;;;;;0.10;0.10;;;;;;;;;;5099416;28;20028;-76
2023/11/12 05:53:32;;;;;;;0.43;0.28;;;;;;;;;;5093978;28;20021;-77
2023/11/12 05:55:58;;;;;;;0.10;0.10;;;;;;;;;;5090419;28;20032;-77
2023/11/12 05:58:24;;;;;;;0.40;0.22;;;;;;;;;;5073035;28;20096;-77
2023/11/12 06:00:54;;;;;;;0.17;0.17;;;;;;;;;;5069700;28;20092;-77
2023/11/12 06:03:21;;;;;;;0.20;0.10;;;;;;;;;;5089923;28;20043;-78
2023/11/12 06:05:47;;;;;;;0.22;0.22;;;;;;;;;;5098239;28;20210;-78
2023/11/12 06:08:13;;;;;;;0.20;0.20;;;;;;;;;;5081781;28;20402;-77
2023/11/12 06:10:43;;;;;;;0.30;0.30;;;;;;;;;;5094111;28;20091;-78
2023/11/12 06:13:09;;;;;;;0.22;0.20;;;;;;;;;;5096448;28;20012;-77
2023/11/12 06:15:35;;;;;;;0.20;0.20;;;;;;;;;;5092217;28;20139;-76
2023/11/12 06:18:03;;;;;;;0.65;0.30;;;;;;;;;;5086263;28;20055;-77
2023/11/12 06:20:29;;;;;;;0.22;0.22;;;;;;;;;;5100242;28;20027;-78
2023/11/12 06:22:56;;;;;;;0.60;0.30;;;;;;;;;;5099622;28;20019;-75
2023/11/12 06:25:23;;;;;;;0.10;0.10;;;;;;;;;;5094482;28;20028;-77
2023/11/12 06:27:50;;;;;;;0.90;0.22;;;;;;;;;;5085105;28;20016;-77
2023/11/12 06:30:16;;;;;;;0.45;0.32;;;;;;;;;;5100644;28;20394;-77
2023/11/12 06:32:43;;;;;;;0.15;0.15;;;;;;;;;;5087113;28;20024;-78
2023/11/12 06:35:09;;;;;;;0.13;0.10;;;;;;;;;;5088086;28;20017;-77
2023/11/12 06:37:35;;;;;;;0.10;0.10;;;;;;;;;;5064428;28;20020;-77
2023/11/12 06:40:03;;;;;;;0.47;0.30;;;;;;;;;;5069596;28;20403;-76
2023/11/12 06:42:31;;;;;;;0.20;0.20;;;;;;;;;;5090043;28;20036;-77
2023/11/12 06:44:57;;;;;;;0.10;0.10;;;;;;;;;;5092247;28;20088;-77
2023/11/12 06:47:23;;;;;;;0.30;0.30;;;;;;;;;;5078951;28;20020;-78
2023/11/12 06:49:49;;;;;;;0.20;0.20;;;;;;;;;;5073170;28;20036;-78
2023/11/12 06:52:15;;;;;;;0.20;0.20;;;;;;;;;;5089743;28;20017;-78
2023/11/12 06:54:42;;;;;;;0.35;0.03;;;;;;;;;;5064100;28;20120;-78
2023/11/12 06:57:08;;;;;;;0.20;0.05;;;;;;;;;;5082625;28;20025;-78
2023/11/12 06:59:34;;;;;;;0.20;0.20;;;;;;;;;;5082506;28;20020;-79
2023/11/12 07:02:00;;;;;;;0.10;0.10;;;;;;;;;;5073965;28;20027;-79
2023/11/12 07:04:26;;;;;;;0.20;0.20;;;;;;;;;;5081177;28;20020;-76
2023/11/12 07:06:52;;;;;;;0.35;0.20;;;;;;;;;;5089573;28;20032;-78
2023/11/12 07:09:19;;;;;;;0.25;0.22;;;;;;;;;;5069228;28;20018;-80
2023/11/12 07:11:45;;;;;;;0.10;0.10;;;;;;;;;;5080599;28;20021;-79
2023/11/12 07:14:11;;;;;;;0.17;0.17;;;;;;;;;;5089712;28;20098;-79
2023/11/12 07:16:38;;;;;;;0.20;0.20;;;;;;;;;;5083899;28;20070;-77
2023/11/12 07:19:05;;;;;;;0.30;0.10;;;;;;;;;;5075705;28;20056;-78
2023/11/12 07:21:31;;;;;;;0.10;0.10;;;;;;;;;;5092921;28;20100;-78
2023/11/12 07:23:58;;;;;;;0.20;0.15;;;;;;;;;;5089714;28;20022;-78
2023/11/12 07:26:25;;;;;;;0.10;0.10;;;;;;;;;;5074264;28;20015;-77
2023/11/12 07:28:51;;;;;;;0.30;0.20;;;;;;;;;;5126728;28;20028;-79
2023/11/12 07:31:20;;;;;;;0.10;0.10;;;;;;;;;;5089395;28;20017;-80
2023/11/12 07:33:46;;;;;;;0.10;0.10;;;;;;;;;;5089725;28;20063;-77
2023/11/12 07:36:12;;;;;;;0.20;0.20;;;;;;;;;;5093344;28;20043;-77
2023/11/12 07:38:39;;;;;;;0.20;0.20;;;;;;;;;;5093164;28;20039;-76
2023/11/12 07:41:07;;;;;;;0.10;0.10;;;;;;;;;;5063662;28;20080;-79
2023/11/12 07:43:34;;;;;;;0.20;0.20;;;;;;;;;;5080750;28;20048;-78
2023/11/12 07:46:00;;;;;;;0.15;0.15;;;;;;;;;;5086703;28;20021;-77
2023/11/12 07:48:26;;;;;;;0.13;0.13;;;;;;;;;;5092219;28;20103;-77
2023/11/12 07:50:52;;;;;;;0.70;0.20;;;;;;;;;;5084832;28;20082;-78
2023/11/12 07:53:18;;;;;;;0.65;0.20;;;;;;;;;;5092496;28;20013;-78
2023/11/12 07:55:45;;;;;;;0.57;0.20;;;;;;;;;;5082188;28;20082;-78
2023/11/12 07:58:11;;;;;;;0.22;0.10;;;;;;;;;;5062431;28;20115;-77
2023/11/12 08:00:37;;;;;;;0.57;0.10;;;;;;;;;;5084789;28;20123;-79
2023/11/12 08:03:03;;;;;;;0.20;0.20;;;;;;;;;;5088499;28;20020;-78
2023/11/12 08:05:29;;;;;;;0.30;0.30;;;;;;;;;;5069826;28;20071;-78
2023/11/12 08:07:55;;;;;;;0.10;0.10;;;;;;;;;;5075502;28;20039;-77
2023/11/12 08:10:21;;;;;;;0.30;0.13;;;;;;;;;;5074540;28;20020;-79
2023/11/12 08:12:48;;;;;;;0.30;0.20;;;;;;;;;;5093019;28;20020;-78
2023/11/12 08:15:14;;;;;;;0.13;0.10;;;;;;;;;;5085263;28;20020;-79
2023/11/12 08:17:41;;;;;;;0.20;0.15;;;;;;;;;;5092885;28;20482;-78
2023/11/12 08:20:07;;;;;;;0.30;0.13;;;;;;;;;;5082523;28;20080;-75
2023/11/12 08:22:33;;;;;;;0.20;0.20;;;;;;;;;;5066977;28;20181;-77
2023/11/12 08:24:59;;;;;;;0.32;0.15;;;;;;;;;;5070953;28;20017;-76
2023/11/12 08:27:25;;;;;;;0.20;0.10;;;;;;;;;;5081362;28;20048;-76
2023/11/12 08:29:51;;;;;;;0.20;0.10;;;;;;;;;;5083179;28;20082;-77
2023/11/12 08:32:18;;;;;;;0.15;0.00;;;;;;;;;;5066466;28;20032;-78
2023/11/12 08:34:45;;;;;;;0.15;0.15;;;;;;;;;;5084164;28;20024;-78
2023/11/12 08:37:11;;;;;;;0.20;0.15;;;;;;;;;;5083671;28;20027;-78
2023/11/12 08:39:38;;;;;;;0.20;0.13;;;;;;;;;;5082834;28;20025;-80
2023/11/12 08:42:04;;;;;;;0.45;0.15;;;;;;;;;;5099845;28;20477;-80
2023/11/12 08:44:30;;;;;;;0.10;0.10;;;;;;;;;;5071883;28;20383;-79
2023/11/12 08:46:56;;;;;;;0.25;0.20;;;;;;;;;;5096096;28;20020;-80
2023/11/12 08:49:23;;;;;;;0.10;0.10;;;;;;;;;;5059903;28;20070;-80
2023/11/12 08:51:49;;;;;;;0.43;0.35;;;;;;;;;;5078606;28;20058;-79
2023/11/12 08:54:15;;;;;;;0.17;0.17;;;;;;;;;;5061340;28;20507;-80
2023/11/12 08:56:41;;;;;;;0.75;0.75;;;;;;;;;;5094002;28;20024;-78
2023/11/12 08:59:07;;;;;;;0.10;0.10;;;;;;;;;;5078321;28;20040;-79
2023/11/12 09:01:38;;;;;;;0.10;0.10;;;;;;;;;;5094371;28;20024;-77
2023/11/12 09:04:04;;;;;;;0.43;0.10;;;;;;;;;;5064979;28;20025;-77
2023/11/12 09:06:30;;;;;;;0.20;0.20;;;;;;;;;;5072850;28;20509;-77
2023/11/12 09:08:57;;;;;;;0.10;0.10;;;;;;;;;;5098059;28;20390;-79
2023/11/12 09:11:23;;;;;;;0.73;0.20;;;;;;;;;;5078390;28;20012;-79
2023/11/12 09:13:49;;;;;;;0.20;0.20;;;;;;;;;;5097388;28;20093;-80
2023/11/12 09:16:16;;;;;;;0.40;0.10;;;;;;;;;;5092232;28;20021;-78
2023/11/12 09:18:42;;;;;;;0.28;0.17;;;;;;;;;;5078131;28;20031;-77
2023/11/12 09:21:08;;;;;;;0.32;0.30;;;;;;;;;;5076318;28;20032;-78
2023/11/12 09:23:34;;;;;;;0.80;0.10;;;;;;;;;;5061368;28;20037;-78
2023/11/12 09:26:00;;;;;;;0.20;0.20;;;;;;;;;;5073950;28;20485;-77
2023/11/12 09:28:26;;;;;;;0.47;0.10;;;;;;;;;;5083274;28;20063;-77
2023/11/12 09:30:52;;;;;;;0.40;0.20;;;;;;;;;;5114754;28;20068;-76
2023/11/12 09:33:18;;;;;;;0.75;0.20;;;;;;;;;;5115104;28;20025;-76
2023/11/12 09:35:44;;;;;;;1.00;0.35;;;;;;;;;;5116193;28;20022;-77
2023/11/12 09:38:13;;;;;;;0.25;0.17;;;;;;;;;;5104992;28;20017;-77
2023/11/12 09:40:39;;;;;;;0.20;0.20;;;;;;;;;;5097399;28;20017;-77
2023/11/12 09:43:05;;;;;;;0.30;0.30;;;;;;;;;;5096686;28;20091;-77
2023/11/12 09:45:33;;;;;;;0.50;0.50;;;;;;;;;;5111223;28;20024;-77
2023/11/12 09:48:26;;;;;;;0.20;0.20;;;;;;;;;;5103368;28;20004;-77
2023/11/12 09:50:52;;;;;;;0.70;0.30;;;;;;;;;;5105800;28;20070;-76
2023/11/12 09:53:18;;;;;;;0.30;0.30;;;;;;;;;;5102759;28;20027;-78
2023/11/12 09:55:45;;;;;;;1.35;0.50;;;;;;;;;;5091409;28;20043;-79
2023/11/12 09:58:12;;;;;;;0.85;0.45;;;;;;;;;;5113375;28;20015;-80
2023/11/12 10:00:38;;;;;;;0.40;0.40;;;;;;;;;;5094298;28;20028;-80
2023/11/12 10:03:06;;;;;;;0.55;0.40;;;;;;;;;;5068392;28;20023;-79
2023/11/12 10:05:32;;;;;;;1.50;0.85;;;;;;;;;;5088427;28;20089;-79
2023/11/12 10:07:59;;;;;;;0.45;0.32;;;;;;;;;;5079935;28;20043;-80
2023/11/12 10:10:33;;;;;;;0.68;0.60;;;;;;;;;;5094536;28;20037;-79
2023/11/12 10:12:59;;;;;;;0.73;0.55;;;;;;;;;;5070664;28;20055;-80
2023/11/12 10:15:26;;;;;;;0.52;0.40;;;;;;;;;;5074367;28;20032;-79
2023/11/12 10:17:53;;;;;;;0.60;0.30;;;;;;;;;;5081694;28;20508;-79
2023/11/12 10:20:20;;;;;;;0.98;0.52;;;;;;;;;;5076490;28;20036;-79
2023/11/12 10:22:46;;;;;;;2.17;0.57;;;;;;;;;;5100413;28;20107;-80
2023/11/12 10:25:13;;;;;;;1.30;0.50;;;;;;;;;;5086597;28;20025;-81
2023/11/12 10:27:56;;;;;;;0.60;0.50;;;;;;;;;;5084313;28;20092;-79
2023/11/12 10:30:23;;;;;;;0.30;0.30;;;;;;;;;;5078543;28;20032;-80
2023/11/12 10:32:49;;;;;;;0.40;0.40;;;;;;;;;;5061254;28;20040;-80
2023/11/12 10:35:31;;;;;;;0.80;0.52;;;;;;;;;;5079124;28;20050;-79
2023/11/12 10:38:00;;;;;;;0.40;0.40;;;;;;;;;;5069533;28;20078;-80
2023/11/12 10:40:26;;;;;;;0.60;0.40;;;;;;;;;;5086841;28;20347;-79
2023/11/12 10:42:58;;;;;;;0.73;0.40;;;;;;;;;;5094390;28;20033;-80
2023/11/12 10:45:25;;;;;;;0.38;0.38;;;;;;;;;;5088823;28;20097;-80
2023/11/12 10:47:55;;;;;;;0.40;0.30;;;;;;;;;;5068733;28;20043;-82
2023/11/12 10:50:24;;;;;;;0.20;0.20;;;;;;;;;;5075921;28;20865;-78
2023/11/12 10:52:53;;;;;;;0.40;0.30;;;;;;;;;;5072378;28;20044;-79
2023/11/12 10:55:22;;;;;;;0.20;0.20;;;;;;;;;;5085088;28;20043;-80
2023/11/12 10:57:48;;;;;;;0.65;0.20;;;;;;;;;;5063714;28;20165;-80
2023/11/12 11:00:16;;;;;;;0.30;0.30;;;;;;;;;;5086963;28;20043;-80
2023/11/12 11:02:44;;;;;;;0.55;0.55;;;;;;;;;;5080083;28;20024;-78
2023/11/12 11:05:12;;;;;;;0.70;0.43;;;;;;;;;;5072951;28;20173;-77
2023/11/12 11:07:38;;;;;;;0.30;0.30;;;;;;;;;;5069104;28;20485;-79
2023/11/12 11:10:06;;;;;;;0.40;0.40;;;;;;;;;;5079455;28;20469;-79
2023/11/12 11:12:33;;;;;;;0.45;0.45;;;;;;;;;;5072872;28;20024;-83
2023/11/12 11:15:19;;;;;;;0.60;0.35;;;;;;;;;;5097756;28;20032;-82
2023/11/12 11:17:45;;;;;;;0.20;0.20;;;;;;;;;;5073757;28;20020;-82
2023/11/12 11:20:11;;;;;;;0.38;0.28;;;;;;;;;;5075531;28;20051;-80
2023/11/12 11:22:38;;;;;;;0.30;0.30;;;;;;;;;;5110158;28;20399;-79
2023/11/12 11:25:25;;;;;;;0.40;0.40;;;;;;;;;;5100713;28;20047;-81
2023/11/12 11:28:11;;;;;;;0.25;0.25;;;;;;;;;;5081554;28;20096;-81
2023/11/12 11:30:38;;;;;;;0.70;0.28;;;;;;;;;;5077612;28;20081;-80
2023/11/12 11:33:04;;;;;;;0.40;0.40;;;;;;;;;;5090834;28;20031;-81
2023/11/12 11:35:32;;;;;;;0.22;0.22;;;;;;;;;;5095998;28;20039;-81
2023/11/12 11:38:11;;;;;;;0.25;0.20;;;;;;;;;;5081245;28;20066;-80
2023/11/12 11:40:42;;;;;;;0.98;0.30;;;;;;;;;;5097578;28;20123;-80
2023/11/12 11:43:23;;;;;;;0.75;0.30;;;;;;;;;;5092081;28;20016;-81
2023/11/12 11:46:08;;;;;;;0.30;0.30;;;;;;;;;;5109998;28;20024;-83
2023/11/12 11:49:00;;;;;;;0.20;0.20;;;;;;;;;;5190359;22;20150;-81
2023/11/12 11:51:35;;;;;;;0.25;0.25;;;;;;;;;;5061037;28;20068;-81
2023/11/12 11:54:09;;;;;;;0.20;0.20;;;;;;;;;;5075120;28;20039;-80
2023/11/12 11:56:42;;;;;;;0.88;0.40;;;;;;;;;;5070938;28;20076;-81
2023/11/12 11:59:34;;;;;;;0.30;0.25;;;;;;;;;;5072598;28;20017;-79
2023/11/12 12:02:06;;;;;;;0.30;0.30;;;;;;;;;;5073083;28;20152;-81
2023/11/12 12:04:33;;;;;;;0.20;0.20;;;;;;;;;;5088208;28;20051;-79
2023/11/12 12:07:08;;;;;;;0.30;0.30;;;;;;;;;;5068305;28;20045;-82
2023/11/12 12:09:37;;;;;;;0.38;0.25;;;;;;;;;;5073593;28;20020;-80
2023/11/12 12:12:23;;;;;;;0.20;0.20;;;;;;;;;;5093396;28;20303;-83
2023/11/12 12:14:54;;;;;;;0.20;0.20;;;;;;;;;;5095602;28;20047;-82
2023/11/12 12:17:20;;;;;;;0.20;0.20;;;;;;;;;;5093496;28;20050;-82
2023/11/12 12:19:57;;;;;;;0.98;0.40;;;;;;;;;;5082739;28;20061;-82
2023/11/12 12:22:23;;;;;;;0.22;0.22;;;;;;;;;;5069202;28;20012;-82
2023/11/12 12:24:52;;;;;;;0.35;0.35;;;;;;;;;;5092813;28;20498;-80
2023/11/12 12:27:18;;;;;;;0.20;0.20;;;;;;;;;;5087488;28;20020;-81
2023/11/12 12:29:50;;;;;;;0.20;0.20;;;;;;;;;;5062927;28;20017;-80
2023/11/12 12:32:20;;;;;;;0.30;0.25;;;;;;;;;;5086353;28;20382;-79
2023/11/12 12:34:56;;;;;;;0.43;0.28;;;;;;;;;;5081122;28;20413;-78
2023/11/12 12:37:25;;;;;;;0.40;0.40;;;;;;;;;;5077482;28;20021;-80
2023/11/12 12:40:03;;;;;;;0.30;0.30;;;;;;;;;;5078096;28;20016;-80
2023/11/12 12:42:30;;;;;;;0.30;0.30;;;;;;;;;;5072894;28;20104;-80
2023/11/12 12:44:59;;;;;;;0.55;0.30;;;;;;;;;;5079260;28;20035;-80
2023/11/12 12:47:36;;;;;;;0.20;0.20;;;;;;;;;;5075657;28;20020;-77
2023/11/12 12:50:15;;;;;;;0.30;0.30;;;;;;;;;;5095212;28;20012;-78
2023/11/12 12:52:46;;;;;;;0.45;0.45;;;;;;;;;;5077874;28;20012;-76
2023/11/12 12:55:15;;;;;;;1.15;0.47;;;;;;;;;;5095842;28;20021;-78
2023/11/12 12:57:41;;;;;;;1.77;0.50;;;;;;;;;;5095882;28;20088;-77
2023/11/12 13:00:11;;;;;;;0.60;0.60;;;;;;;;;;5077801;28;20038;-76
2023/11/12 13:02:41;;;;;;;0.45;0.32;;;;;;;;;;5084523;28;20028;-80
2023/11/12 13:05:07;;;;;;;0.50;0.22;;;;;;;;;;5090573;28;20103;-79
2023/11/12 13:07:34;;;;;;;0.35;0.35;;;;;;;;;;5076719;28;20036;-80
2023/11/12 13:10:01;;;;;;;0.32;0.32;;;;;;;;;;5068305;28;20052;-78
2023/11/12 13:12:27;;;;;;;0.40;0.30;;;;;;;;;;5086245;28;20081;-80
2023/11/12 13:14:54;;;;;;;0.30;0.30;;;;;;;;;;5065682;28;20494;-80
2023/11/12 13:17:23;;;;;;;0.40;0.40;;;;;;;;;;5083092;28;20178;-78
2023/11/12 13:19:49;;;;;;;0.30;0.30;;;;;;;;;;5082600;28;20085;-78
2023/11/12 13:22:15;;;;;;;0.65;0.22;;;;;;;;;;5065222;28;20031;-79
2023/11/12 13:24:43;;;;;;;0.10;0.10;;;;;;;;;;5091240;28;20100;-80
2023/11/12 13:27:11;;;;;;;0.30;0.30;;;;;;;;;;5083654;28;20043;-79
2023/11/12 13:29:37;;;;;;;0.15;0.15;;;;;;;;;;5083804;28;20043;-78
2023/11/12 13:32:05;;;;;;;0.22;0.20;;;;;;;;;;5081509;28;20021;-79
2023/11/12 13:34:32;;;;;;;0.47;0.47;;;;;;;;;;5070199;28;20132;-80
2023/11/12 13:36:58;;;;;;;0.20;0.20;;;;;;;;;;5065495;28;20213;-79
2023/11/12 13:39:27;;;;;;;0.20;0.20;;;;;;;;;;5082674;28;20044;-79
2023/11/12 13:41:54;;;;;;;0.30;0.30;;;;;;;;;;5065169;28;20028;-78
2023/11/12 13:44:24;;;;;;;0.30;0.30;;;;;;;;;;5083241;28;20024;-79
2023/11/12 13:46:53;;;;;;;0.35;0.28;;;;;;;;;;5086086;28;20160;-80
2023/11/12 13:49:19;;;;;;;0.25;0.25;;;;;;;;;;5090746;28;20028;-78
2023/11/12 13:51:46;;;;;;;0.30;0.30;;;;;;;;;;5066412;28;20052;-78
2023/11/12 13:54:12;;;;;;;0.30;0.30;;;;;;;;;;5072082;28;20355;-80
2023/11/12 13:56:41;;;;;;;0.98;0.30;;;;;;;;;;5093393;28;20081;-80
2023/11/12 13:59:08;;;;;;;0.63;0.30;;;;;;;;;;5087780;28;20012;-80
2023/11/12 14:01:35;;;;;;;0.73;0.32;;;;;;;;;;5088860;28;20024;-80
2023/11/12 14:04:01;;;;;;;0.30;0.30;;;;;;;;;;5062155;28;20016;-79
2023/11/12 14:06:27;;;;;;;0.30;0.30;;;;;;;;;;5083401;28;20040;-79
2023/11/12 14:08:55;;;;;;;0.40;0.40;;;;;;;;;;5081935;28;20024;-79
2023/11/12 14:11:22;;;;;;;0.32;0.30;;;;;;;;;;5084566;28;20048;-80
2023/11/12 14:13:48;;;;;;;0.28;0.28;;;;;;;;;;5065942;28;20032;-79
2023/11/12 14:16:15;;;;;;;0.47;0.40;;;;;;;;;;5084380;28;20028;-80
2023/11/12 14:18:44;;;;;;;0.40;0.40;;;;;;;;;;5084588;28;20107;-80
2023/11/12 14:21:10;;;;;;;0.65;0.40;;;;;;;;;;5083818;28;20028;-80
2023/11/12 14:23:40;;;;;;;0.20;0.20;;;;;;;;;;5072319;28;20078;-81
2023/11/12 14:26:06;;;;;;;1.15;0.63;;;;;;;;;;5094002;28;20062;-80
2023/11/12 14:28:33;;;;;;;0.68;0.63;;;;;;;;;;5066462;28;20100;-81
2023/11/12 14:30:59;;;;;;;0.40;0.40;;;;;;;;;;5086301;28;20034;-81
2023/11/12 14:33:27;;;;;;;1.00;0.50;;;;;;;;;;5088545;28;20016;-80
2023/11/12 14:35:53;;;;;;;0.57;0.40;;;;;;;;;;5085027;28;20457;-80
2023/11/12 14:38:19;;;;;;;0.32;0.32;;;;;;;;;;5070301;28;20032;-78
2023/11/12 14:40:45;;;;;;;0.50;0.50;;;;;;;;;;5090895;28;20025;-78
2023/11/12 14:43:13;;;;;;;0.52;0.45;;;;;;;;;;5066363;28;20115;-78
2023/11/12 14:45:40;;;;;;;0.40;0.30;;;;;;;;;;5089691;28;20021;-78